createdAt,value
2023-02-06T00:01:19.256Z,98900.13
2023-02-06T00:03:45.753Z,98897.34
2023-02-06T00:06:12.704Z,98899.38
2023-02-06T00:08:39.201Z,98891.16
2023-02-06T00:11:07.470Z,98887.13
2023-02-06T00:13:35.027Z,98897.78
2023-02-06T00:16:01.661Z,98895.53
2023-02-06T00:18:28.440Z,98893.16
2023-02-06T00:20:54.984Z,98895.88
2023-02-06T00:23:21.468Z,98896.72
2023-02-06T00:25:48.021Z,98895.66
2023-02-06T00:28:14.581Z,98895.00
2023-02-06T00:30:41.090Z,98906.53
2023-02-06T00:33:07.549Z,98906.53
2023-02-06T00:35:34.321Z,98905.38
2023-02-06T00:38:02.449Z,98908.66
2023-02-06T00:40:29.428Z,98906.28
2023-02-06T00:42:55.942Z,98901.25
2023-02-06T00:45:22.717Z,98893.31
2023-02-06T00:47:49.170Z,98905.41
2023-02-06T00:50:16.086Z,98898.94
2023-02-06T00:52:42.634Z,98899.22
2023-02-06T00:55:09.118Z,98897.53
2023-02-06T00:57:35.586Z,98896.66
2023-02-06T01:00:03.211Z,98889.06
2023-02-06T01:02:29.708Z,98891.00
2023-02-06T01:04:56.215Z,98880.75
2023-02-06T01:07:22.752Z,98882.63
2023-02-06T01:09:49.202Z,98882.00
2023-02-06T01:12:15.849Z,98883.22
2023-02-06T01:14:42.425Z,98877.31
2023-02-06T01:17:10.217Z,98883.31
2023-02-06T01:19:38.138Z,98874.41
2023-02-06T01:22:05.247Z,98883.75
2023-02-06T01:24:31.811Z,98877.91
2023-02-06T01:26:58.493Z,98873.97
2023-02-06T01:29:24.948Z,98874.50
2023-02-06T01:31:51.381Z,98877.91
2023-02-06T01:34:17.907Z,98870.50
2023-02-06T01:36:44.401Z,98870.66
2023-02-06T01:39:10.866Z,98869.06
2023-02-06T01:41:37.582Z,98871.44
2023-02-06T01:44:17.729Z,98872.50
2023-02-06T01:46:46.726Z,98868.53
2023-02-06T01:49:21.033Z,98870.22
2023-02-06T01:51:49.278Z,98866.16
2023-02-06T01:54:15.992Z,98859.56
2023-02-06T01:56:48.360Z,98863.28
2023-02-06T01:59:14.922Z,98862.56
2023-02-06T02:01:41.953Z,98872.75
2023-02-06T02:04:13.096Z,98868.72
2023-02-06T02:06:40.089Z,98862.50
2023-02-06T02:09:07.136Z,98866.03
2023-02-06T02:11:36.290Z,98865.97
2023-02-06T02:14:04.861Z,98852.09
2023-02-06T02:16:48.683Z,98847.66
2023-02-06T02:19:49.236Z,98847.09
2023-02-06T02:22:39.774Z,98847.31
2023-02-06T02:25:06.337Z,98850.91
2023-02-06T02:27:41.737Z,98856.84
2023-02-06T02:30:32.790Z,98858.53
2023-02-06T02:33:34.939Z,98869.38
2023-02-06T02:36:13.368Z,98860.44
2023-02-06T02:38:57.140Z,98857.50
2023-02-06T02:41:37.759Z,98874.66
2023-02-06T02:44:08.332Z,98867.88
2023-02-06T02:46:40.870Z,98875.50
2023-02-06T02:49:17.310Z,98878.69
2023-02-06T02:51:44.265Z,98882.00
2023-02-06T02:54:10.859Z,98877.66
2023-02-06T02:56:38.526Z,98875.91
2023-02-06T02:59:16.042Z,98871.81
2023-02-06T03:02:03.282Z,98876.72
2023-02-06T03:05:04.281Z,98880.69
2023-02-06T03:07:38.868Z,98881.63
2023-02-06T03:10:15.525Z,98873.94
2023-02-06T03:13:03.301Z,98872.81
2023-02-06T03:15:45.914Z,98876.28
2023-02-06T03:18:18.052Z,98864.41
2023-02-06T03:20:45.995Z,98866.75
2023-02-06T03:23:17.229Z,98861.53
2023-02-06T03:25:45.583Z,98866.94
2023-02-06T03:28:16.897Z,98867.22
2023-02-06T03:30:46.253Z,98863.13
2023-02-06T03:33:15.535Z,98865.00
2023-02-06T03:35:42.271Z,98871.16
2023-02-06T03:38:09.142Z,98868.69
2023-02-06T03:40:36.317Z,98861.44
2023-02-06T03:43:03.983Z,98860.50
2023-02-06T03:45:39.271Z,98856.91
2023-02-06T03:48:10.341Z,98863.78
2023-02-06T03:50:39.569Z,98853.66
2023-02-06T03:53:06.411Z,98855.19
2023-02-06T03:55:32.877Z,98860.41
2023-02-06T03:58:03.768Z,98863.13
2023-02-06T04:00:31.043Z,98856.88
2023-02-06T04:02:58.529Z,98855.97
2023-02-06T04:05:34.806Z,98862.50
2023-02-06T04:08:05.724Z,98861.78
2023-02-06T04:10:32.394Z,98862.75
2023-02-06T04:12:58.867Z,98858.34
2023-02-06T04:15:25.511Z,98863.41
2023-02-06T04:18:00.105Z,98855.13
2023-02-06T04:20:28.279Z,98856.34
2023-02-06T04:22:54.828Z,98852.84
2023-02-06T04:25:21.485Z,98855.03
2023-02-06T04:27:47.998Z,98853.06
2023-02-06T04:30:15.661Z,98855.72
2023-02-06T04:32:42.286Z,98848.81
2023-02-06T04:35:08.983Z,98859.13
2023-02-06T04:37:35.686Z,98859.84
2023-02-06T04:40:02.241Z,98849.94
2023-02-06T04:42:28.729Z,98852.22
2023-02-06T04:44:55.199Z,98855.72
2023-02-06T04:47:21.769Z,98852.25
2023-02-06T04:49:48.277Z,98852.56
2023-02-06T04:52:14.775Z,98853.75
2023-02-06T04:54:41.197Z,98852.72
2023-02-06T04:57:07.697Z,98855.75
2023-02-06T04:59:34.173Z,98858.75
2023-02-06T05:02:01.581Z,98861.09
2023-02-06T05:04:28.125Z,98857.84
2023-02-06T05:06:54.599Z,98862.84
2023-02-06T05:09:21.078Z,98852.16
2023-02-06T05:11:47.552Z,98867.00
2023-02-06T05:14:14.129Z,98867.44
2023-02-06T05:16:40.596Z,98862.16
2023-02-06T05:19:07.117Z,98861.09
2023-02-06T05:21:33.601Z,98860.69
2023-02-06T05:24:00.047Z,98869.41
2023-02-06T05:26:26.488Z,98869.91
2023-02-06T05:28:53.141Z,98870.53
2023-02-06T05:31:20.264Z,98871.84
2023-02-06T05:33:51.112Z,98870.09
2023-02-06T05:36:18.901Z,98876.72
2023-02-06T05:38:45.598Z,98876.72
2023-02-06T05:41:12.715Z,98874.03
2023-02-06T05:43:39.209Z,98883.78
2023-02-06T05:46:05.912Z,98874.03
2023-02-06T05:48:34.428Z,98876.53
2023-02-06T05:51:01.402Z,98874.13
2023-02-06T05:53:27.947Z,98873.03
2023-02-06T05:55:54.594Z,98876.00
2023-02-06T05:58:21.254Z,98878.03
2023-02-06T06:00:47.763Z,98878.53
2023-02-06T06:03:14.340Z,98883.44
2023-02-06T06:05:40.808Z,98881.31
2023-02-06T06:08:07.283Z,98876.09
2023-02-06T06:10:33.806Z,98882.81
2023-02-06T06:13:00.361Z,98879.94
2023-02-06T06:15:26.855Z,98882.16
2023-02-06T06:17:53.370Z,98876.94
2023-02-06T06:20:19.956Z,98880.91
2023-02-06T06:22:46.458Z,98875.03
2023-02-06T06:25:13.169Z,98878.81
2023-02-06T06:27:39.749Z,98888.03
2023-02-06T06:30:06.718Z,98882.69
2023-02-06T06:32:33.240Z,98885.59
2023-02-06T06:34:59.841Z,98887.50
2023-02-06T06:37:26.398Z,98889.31
2023-02-06T06:39:52.916Z,98877.72
2023-02-06T06:42:19.526Z,98888.41
2023-02-06T06:44:46.326Z,98881.06
2023-02-06T06:47:13.315Z,98889.19
2023-02-06T06:49:39.886Z,98894.03
2023-02-06T06:52:13.406Z,98888.22
2023-02-06T06:54:46.329Z,98901.97
2023-02-06T06:57:13.350Z,98897.19
2023-02-06T06:59:40.216Z,98900.50
2023-02-06T07:02:07.334Z,98903.25
2023-02-06T07:04:33.895Z,98919.84
2023-02-06T07:07:00.431Z,98923.13
2023-02-06T07:09:27.130Z,98920.88
2023-02-06T07:11:53.661Z,98929.94
2023-02-06T07:14:20.264Z,98923.41
2023-02-06T07:16:47.140Z,98917.56
2023-02-06T07:19:13.688Z,98910.09
2023-02-06T07:21:40.453Z,98918.25
2023-02-06T07:24:07.209Z,98914.09
2023-02-06T07:26:33.798Z,98922.75
2023-02-06T07:29:00.319Z,98922.91
2023-02-06T07:31:26.947Z,98917.25
2023-02-06T07:33:53.437Z,98919.94
2023-02-06T07:36:20.131Z,98920.78
2023-02-06T07:38:46.782Z,98925.19
2023-02-06T07:41:13.294Z,98916.97
2023-02-06T07:43:39.886Z,98921.16
2023-02-06T07:46:06.548Z,98912.16
2023-02-06T07:48:33.024Z,98924.03
2023-02-06T07:51:05.240Z,98926.59
2023-02-06T07:53:31.742Z,98926.19
2023-02-06T07:55:58.266Z,98923.22
2023-02-06T07:58:25.679Z,98921.34
2023-02-06T08:00:52.299Z,98919.94
2023-02-06T08:03:19.062Z,98919.91
2023-02-06T08:05:45.535Z,98913.56
2023-02-06T08:08:12.577Z,98921.09
2023-02-06T08:10:39.824Z,98921.94
2023-02-06T08:13:06.318Z,98921.31
2023-02-06T08:15:33.319Z,98932.91
2023-02-06T08:17:59.941Z,98934.22
2023-02-06T08:20:26.638Z,98931.91
2023-02-06T08:22:54.147Z,98934.47
2023-02-06T08:25:20.662Z,98929.47
2023-02-06T08:27:47.369Z,98924.72
2023-02-06T08:30:14.023Z,98918.91
2023-02-06T08:32:40.472Z,98911.53
2023-02-06T08:35:07.103Z,98918.09
2023-02-06T08:37:33.550Z,98908.97
2023-02-06T08:40:00.062Z,98907.25
2023-02-06T08:42:26.536Z,98910.69
2023-02-06T08:44:53.808Z,98913.34
2023-02-06T08:47:20.297Z,98911.31
2023-02-06T08:49:50.644Z,98918.44
2023-02-06T08:52:17.684Z,98920.53
2023-02-06T08:54:44.169Z,98923.72
2023-02-06T08:57:12.771Z,98921.28
2023-02-06T08:59:39.311Z,98918.09
2023-02-06T09:02:08.276Z,98919.84
2023-02-06T09:04:37.596Z,98922.66
2023-02-06T09:07:04.301Z,98910.34
2023-02-06T09:09:30.923Z,98905.69
2023-02-06T09:12:02.222Z,98913.19
2023-02-06T09:14:29.403Z,98920.72
2023-02-06T09:16:58.192Z,98932.59
2023-02-06T09:19:25.457Z,98930.75
2023-02-06T09:21:51.952Z,98930.16
2023-02-06T09:24:18.522Z,98931.94
2023-02-06T09:26:58.918Z,98932.16
2023-02-06T09:29:28.948Z,98924.53
2023-02-06T09:31:57.326Z,98915.44
2023-02-06T09:34:25.694Z,98927.72
2023-02-06T09:36:54.564Z,98920.72
2023-02-06T09:39:21.476Z,98927.28
2023-02-06T09:41:52.056Z,98921.75
2023-02-06T09:44:33.140Z,98926.69
2023-02-06T09:47:05.344Z,98918.53
2023-02-06T09:49:46.553Z,98932.38
2023-02-06T09:52:28.031Z,98925.72
2023-02-06T09:55:10.241Z,98921.84
2023-02-06T09:57:51.638Z,98925.25
2023-02-06T10:00:31.640Z,98925.50
2023-02-06T10:02:58.405Z,98935.94
2023-02-06T10:05:35.098Z,98933.38
2023-02-06T10:08:19.828Z,98921.91
2023-02-06T10:10:51.886Z,98924.34
2023-02-06T10:13:41.196Z,98920.84
2023-02-06T10:16:30.879Z,98920.19
2023-02-06T10:19:03.226Z,98907.69
2023-02-06T10:21:42.950Z,98912.81
2023-02-06T10:24:45.481Z,98913.69
2023-02-06T10:27:14.241Z,98910.22
2023-02-06T10:29:42.238Z,98908.72
2023-02-06T10:32:14.286Z,98919.59
2023-02-06T10:35:07.659Z,98917.72
2023-02-06T10:38:04.861Z,98916.50
2023-02-06T10:40:43.708Z,98914.81
2023-02-06T10:43:48.536Z,98911.72
2023-02-06T10:46:51.006Z,98911.50
2023-02-06T10:49:23.250Z,98908.66
2023-02-06T10:51:56.480Z,98907.81
2023-02-06T10:54:47.557Z,98906.06
2023-02-06T10:57:19.512Z,98903.66
2023-02-06T10:59:48.596Z,98904.50
2023-02-06T11:02:42.544Z,98897.53
2023-02-06T11:05:14.659Z,98889.16
2023-02-06T11:07:43.937Z,98890.00
2023-02-06T11:10:21.861Z,98890.91
2023-02-06T11:12:52.159Z,98892.78
2023-02-06T11:15:24.997Z,98886.03
2023-02-06T11:17:52.278Z,98891.28
2023-02-06T11:20:25.164Z,98891.13
2023-02-06T11:22:53.437Z,98906.16
2023-02-06T11:25:31.404Z,98914.09
2023-02-06T11:27:58.856Z,98923.22
2023-02-06T11:30:34.819Z,98924.78
2023-02-06T11:33:07.494Z,98924.88
2023-02-06T11:35:38.894Z,98930.00
2023-02-06T11:38:17.976Z,98930.78
2023-02-06T11:41:06.707Z,98926.50
2023-02-06T11:43:42.341Z,98926.56
2023-02-06T11:46:20.919Z,98917.91
2023-02-06T11:48:56.195Z,98918.03
2023-02-06T11:51:24.070Z,98919.72
2023-02-06T11:54:03.762Z,98924.72
2023-02-06T11:56:31.590Z,98926.34
2023-02-06T11:59:07.358Z,98925.56
2023-02-06T12:01:51.765Z,98915.31
2023-02-06T12:04:28.189Z,98926.91
2023-02-06T12:07:00.756Z,98923.56
2023-02-06T12:09:28.033Z,98914.59
2023-02-06T12:11:59.345Z,98919.81
2023-02-06T12:14:31.697Z,98912.06
2023-02-06T12:17:01.263Z,98913.94
2023-02-06T12:19:31.730Z,98923.38
2023-02-06T12:22:02.577Z,98917.41
2023-02-06T12:24:32.291Z,98923.06
2023-02-06T12:27:02.508Z,98919.25
2023-02-06T12:29:35.121Z,98920.97
2023-02-06T12:32:14.739Z,98911.69
2023-02-06T12:34:54.366Z,98913.28
2023-02-06T12:37:41.097Z,98898.94
2023-02-06T12:40:38.368Z,98901.28
2023-02-06T12:43:15.086Z,98907.97
2023-02-06T12:46:01.384Z,98900.41
2023-02-06T12:48:45.906Z,98898.69
2023-02-06T12:51:21.494Z,98906.31
2023-02-06T12:54:09.851Z,98909.63
2023-02-06T12:56:44.260Z,98914.72
2023-02-06T12:59:10.645Z,98908.09
2023-02-06T13:01:45.987Z,98908.13
2023-02-06T13:04:17.180Z,98905.44
2023-02-06T13:06:50.361Z,98907.13
2023-02-06T13:09:21.823Z,98909.63
2023-02-06T13:11:48.572Z,98909.59
2023-02-06T13:14:26.934Z,98909.75
2023-02-06T13:16:59.341Z,98905.59
2023-02-06T13:19:46.024Z,98896.28
2023-02-06T13:22:17.359Z,98888.00
2023-02-06T13:24:46.077Z,98902.09
2023-02-06T13:27:33.241Z,98895.41
2023-02-06T13:30:29.029Z,98895.28
2023-02-06T13:33:13.710Z,98894.63
2023-02-06T13:35:59.050Z,98892.78
2023-02-06T13:38:34.297Z,98897.84
2023-02-06T13:41:15.643Z,98895.97
2023-02-06T13:43:54.465Z,98889.53
2023-02-06T13:46:23.362Z,98887.88
2023-02-06T13:49:23.552Z,98885.41
2023-02-06T13:51:52.952Z,98888.59
2023-02-06T13:54:39.080Z,98889.53
2023-02-06T13:57:26.880Z,98896.03
2023-02-06T13:59:57.774Z,98892.56
2023-02-06T14:02:28.777Z,98898.34
2023-02-06T14:04:56.085Z,98885.66
2023-02-06T14:07:43.632Z,98884.91
2023-02-06T14:10:37.771Z,98894.94
2023-02-06T14:13:24.087Z,98882.16
2023-02-06T14:15:58.850Z,98876.19
2023-02-06T14:18:48.797Z,98885.88
2023-02-06T14:21:22.393Z,98884.53
2023-02-06T14:24:27.615Z,98885.59
2023-02-06T14:27:15.783Z,98883.22
2023-02-06T14:29:52.366Z,98895.66
2023-02-06T14:32:30.652Z,98893.84
2023-02-06T14:35:11.901Z,98889.53
2023-02-06T14:38:06.963Z,98891.66
2023-02-06T14:40:36.519Z,98887.53
2023-02-06T14:43:05.846Z,98886.63
2023-02-06T14:45:42.090Z,98883.09
2023-02-06T14:48:23.629Z,98888.66
2023-02-06T14:50:55.459Z,98895.47
2023-02-06T14:53:29.495Z,98895.47
2023-02-06T14:56:08.784Z,98894.53
2023-02-06T14:58:35.833Z,98892.88
2023-02-06T15:01:24.385Z,98884.25
2023-02-06T15:03:52.744Z,98884.22
2023-02-06T15:06:37.706Z,98873.09
2023-02-06T15:09:05.288Z,98882.16
2023-02-06T15:11:34.842Z,98883.59
2023-02-06T15:14:15.264Z,98883.59
2023-02-06T15:16:49.352Z,98884.25
2023-02-06T15:19:21.648Z,98889.19
2023-02-06T15:21:49.382Z,98884.84
2023-02-06T15:24:30.328Z,98890.59
2023-02-06T15:27:21.795Z,98878.75
2023-02-06T15:29:50.454Z,98886.22
2023-02-06T15:32:24.015Z,98890.16
2023-02-06T15:34:50.634Z,98885.03
2023-02-06T15:37:27.737Z,98886.66
2023-02-06T15:39:54.452Z,98888.25
2023-02-06T15:42:21.757Z,98895.00
2023-02-06T15:44:49.636Z,98899.97
2023-02-06T15:47:17.860Z,98899.88
2023-02-06T15:49:47.793Z,98907.41
2023-02-06T15:52:15.501Z,98906.53
2023-02-06T15:54:44.921Z,98918.16
2023-02-06T15:57:29.593Z,98913.78
2023-02-06T15:59:59.029Z,98913.59
2023-02-06T16:02:36.386Z,98917.00
2023-02-06T16:05:04.202Z,98924.31
2023-02-06T16:07:35.654Z,98919.31
2023-02-06T16:10:18.742Z,98924.25
2023-02-06T16:12:45.366Z,98929.25
2023-02-06T16:15:27.217Z,98944.38
2023-02-06T16:17:54.491Z,98938.56
2023-02-06T16:20:37.348Z,98944.28
2023-02-06T16:23:27.031Z,98946.69
2023-02-06T16:26:15.611Z,98938.13
2023-02-06T16:29:09.469Z,98941.16
2023-02-06T16:31:38.494Z,98937.72
2023-02-06T16:34:29.075Z,98934.38
2023-02-06T16:36:55.669Z,98945.25
2023-02-06T16:39:23.635Z,98936.97
2023-02-06T16:41:51.927Z,98943.72
2023-02-06T16:44:19.488Z,98941.75
2023-02-06T16:46:46.545Z,98951.00
2023-02-06T16:49:16.626Z,98936.38
2023-02-06T16:51:43.833Z,98939.66
2023-02-06T16:54:20.177Z,98925.88
2023-02-06T16:56:46.867Z,98920.75
2023-02-06T16:59:13.414Z,98925.75
2023-02-06T17:01:39.982Z,98929.97
2023-02-06T17:04:06.662Z,98931.50
2023-02-06T17:06:34.319Z,98933.19
2023-02-06T17:09:06.528Z,98928.69
2023-02-06T17:11:33.476Z,98931.38
2023-02-06T17:13:59.981Z,98926.25
2023-02-06T17:16:27.210Z,98931.38
2023-02-06T17:18:54.313Z,98926.25
2023-02-06T17:21:22.257Z,98930.47
2023-02-06T17:23:49.921Z,98923.78
2023-02-06T17:26:21.674Z,98916.88
2023-02-06T17:28:48.585Z,98919.44
2023-02-06T17:31:15.635Z,98915.09
2023-02-06T17:33:42.203Z,98913.25
2023-02-06T17:36:18.904Z,98910.63
2023-02-06T17:38:45.607Z,98917.44
2023-02-06T17:41:12.925Z,98913.81
2023-02-06T17:43:39.507Z,98912.97
2023-02-06T17:46:06.824Z,98914.59
2023-02-06T17:48:36.649Z,98922.94
2023-02-06T17:51:05.115Z,98920.00
2023-02-06T17:53:31.695Z,98917.09
2023-02-06T17:56:03.884Z,98911.06
2023-02-06T17:58:30.529Z,98921.16
2023-02-06T18:00:57.198Z,98913.63
2023-02-06T18:03:23.824Z,98914.31
2023-02-06T18:06:00.443Z,98916.84
2023-02-06T18:08:28.557Z,98923.31
2023-02-06T18:10:55.507Z,98937.69
2023-02-06T18:13:24.029Z,98931.72
2023-02-06T18:15:55.668Z,98924.09
2023-02-06T18:18:26.190Z,98933.19
2023-02-06T18:20:52.744Z,98918.97
2023-02-06T18:23:19.488Z,98922.44
2023-02-06T18:25:46.035Z,98912.25
2023-02-06T18:28:14.765Z,98896.09
2023-02-06T18:30:42.104Z,98903.06
2023-02-06T18:33:09.191Z,98906.28
2023-02-06T18:35:39.317Z,98911.63
2023-02-06T18:38:09.555Z,98902.34
2023-02-06T18:40:40.678Z,98905.22
2023-02-06T18:43:07.730Z,98906.84
2023-02-06T18:45:36.902Z,98910.84
2023-02-06T18:48:04.959Z,98915.91
2023-02-06T18:50:32.004Z,98919.94
2023-02-06T18:52:58.567Z,98914.81
2023-02-06T18:55:25.382Z,98919.66
2023-02-06T18:57:53.693Z,98922.47
2023-02-06T19:00:22.057Z,98925.06
2023-02-06T19:02:49.628Z,98925.94
2023-02-06T19:05:16.360Z,98928.28
2023-02-06T19:07:42.917Z,98928.34
2023-02-06T19:10:12.914Z,98935.63
2023-02-06T19:12:40.149Z,98934.16
2023-02-06T19:15:06.901Z,98941.53
2023-02-06T19:17:33.920Z,98944.16
2023-02-06T19:20:00.398Z,98938.16
2023-02-06T19:22:27.019Z,98937.34
2023-02-06T19:24:53.541Z,98935.56
2023-02-06T19:27:21.234Z,98946.31
2023-02-06T19:29:48.009Z,98954.34
2023-02-06T19:32:14.525Z,98947.00
2023-02-06T19:34:41.995Z,98948.09
2023-02-06T19:37:09.895Z,98947.16
2023-02-06T19:39:39.938Z,98944.56
2023-02-06T19:42:09.579Z,98938.53
2023-02-06T19:44:37.023Z,98924.41
2023-02-06T19:47:03.936Z,98924.41
2023-02-06T19:49:30.683Z,98931.97
2023-02-06T19:51:57.309Z,98930.38
2023-02-06T19:54:23.946Z,98927.63
2023-02-06T19:56:50.399Z,98936.66
2023-02-06T19:59:22.609Z,98942.53
2023-02-06T20:01:52.188Z,98940.69
2023-02-06T20:04:20.887Z,98935.66
2023-02-06T20:06:49.253Z,98933.88
2023-02-06T20:09:15.940Z,98932.84
2023-02-06T20:11:42.798Z,98941.16
2023-02-06T20:14:10.150Z,98944.66
2023-02-06T20:16:38.214Z,98921.34
2023-02-06T20:19:15.626Z,98929.81
2023-02-06T20:21:44.709Z,98933.16
2023-02-06T20:24:18.537Z,98939.84
2023-02-06T20:26:45.512Z,98926.28
2023-02-06T20:29:19.737Z,98931.09
2023-02-06T20:31:46.555Z,98941.75
2023-02-06T20:34:13.635Z,98941.00
2023-02-06T20:36:41.884Z,98945.50
2023-02-06T20:39:11.796Z,98932.06
2023-02-06T20:41:38.807Z,98947.31
2023-02-06T20:44:05.852Z,98941.03
2023-02-06T20:46:33.906Z,98950.78
2023-02-06T20:49:02.946Z,98948.50
2023-02-06T20:51:30.938Z,98950.97
2023-02-06T20:53:58.225Z,98947.03
2023-02-06T20:56:24.865Z,98948.22
2023-02-06T20:58:51.485Z,98942.72
2023-02-06T21:01:22.249Z,98947.06
2023-02-06T21:03:49.429Z,98947.16
2023-02-06T21:06:16.144Z,98947.22
2023-02-06T21:08:43.058Z,98955.94
2023-02-06T21:11:09.638Z,98945.94
2023-02-06T21:13:36.381Z,98946.19
2023-02-06T21:16:03.211Z,98949.00
2023-02-06T21:18:31.093Z,98952.16
2023-02-06T21:21:07.232Z,98940.38
2023-02-06T21:23:34.075Z,98952.38
2023-02-06T21:26:00.622Z,98960.78
2023-02-06T21:28:27.130Z,98965.84
2023-02-06T21:30:59.810Z,98954.63
2023-02-06T21:33:26.407Z,98951.34
2023-02-06T21:35:53.710Z,98962.81
2023-02-06T21:38:20.787Z,98955.28
2023-02-06T21:40:47.385Z,98944.31
2023-02-06T21:43:17.011Z,98950.63
2023-02-06T21:45:44.596Z,98955.66
2023-02-06T21:48:11.552Z,98953.63
2023-02-06T21:50:39.291Z,98966.63
2023-02-06T21:53:05.924Z,98953.22
2023-02-06T21:55:32.495Z,98955.88
2023-02-06T21:58:00.607Z,98950.97
2023-02-06T22:00:28.498Z,98961.06
2023-02-06T22:02:54.993Z,98958.34
2023-02-06T22:05:21.671Z,98959.19
2023-02-06T22:07:48.140Z,98954.47
2023-02-06T22:10:14.750Z,98946.03
2023-02-06T22:12:41.238Z,98956.63
2023-02-06T22:15:08.246Z,98947.97
2023-02-06T22:17:35.450Z,98946.28
2023-02-06T22:20:01.954Z,98944.66
2023-02-06T22:22:28.551Z,98943.78
2023-02-06T22:24:54.998Z,98928.88
2023-02-06T22:27:21.551Z,98940.84
2023-02-06T22:29:48.002Z,98940.31
2023-02-06T22:32:14.452Z,98934.28
2023-02-06T22:34:40.929Z,98927.53
2023-02-06T22:37:07.391Z,98927.53
2023-02-06T22:39:33.923Z,98926.53
2023-02-06T22:42:00.624Z,98921.66
2023-02-06T22:44:27.118Z,98929.16
2023-02-06T22:46:53.659Z,98921.94
2023-02-06T22:49:20.965Z,98916.47
2023-02-06T22:51:47.527Z,98917.50
2023-02-06T22:54:14.602Z,98914.84
2023-02-06T22:56:42.340Z,98912.91
2023-02-06T22:59:26.954Z,98923.75
2023-02-06T23:01:56.270Z,98932.16
2023-02-06T23:04:27.531Z,98929.16
2023-02-06T23:06:54.146Z,98935.63
2023-02-06T23:09:23.229Z,98939.19
2023-02-06T23:11:50.690Z,98927.44
2023-02-06T23:14:18.579Z,98937.38
2023-02-06T23:16:45.433Z,98929.31
2023-02-06T23:19:13.149Z,98926.78
2023-02-06T23:21:41.164Z,98918.34
2023-02-06T23:24:09.053Z,98924.06
2023-02-06T23:26:35.919Z,98934.84
2023-02-06T23:29:06.149Z,98927.34
2023-02-06T23:31:32.985Z,98918.38
2023-02-06T23:33:59.597Z,98929.44
2023-02-06T23:36:27.139Z,98933.16
2023-02-06T23:38:53.803Z,98927.50
2023-02-06T23:41:23.302Z,98928.28
2023-02-06T23:43:55.753Z,98922.56
2023-02-06T23:46:22.859Z,98924.09
2023-02-06T23:48:49.907Z,98924.22
2023-02-06T23:51:17.493Z,98924.66
2023-02-06T23:53:44.092Z,98919.19
2023-02-06T23:56:12.868Z,98915.56
2023-02-06T23:58:39.867Z,98918.97
